Time;durP1;ratioP1;P1;durP2;ratioP2;P2;SDS_P1;SDS_P2;PMS_P1;PMS_P2;Temp;Humidity;BMP_temperature;BMP_pressure;BME280_temperature;BME280_humidity;BME280_pressure;Samples;Min_cycle;Max_cycle;Signal;HPM_P1;HPM_P2
2023/01/26 00:01:18;;;;;;;;;;;;;;;4.48;67.67;100649.75;4966128;28;20318;-82
2023/01/26 00:03:43;;;;;;;;;;;;;;;4.15;69.22;100649.75;4964849;28;19926;-81
2023/01/26 00:06:11;;;;;;;;;;;;;;;4.04;70.84;100649.47;4964092;28;20020;-81
2023/01/26 00:08:37;;;;;;;;;;;;;;;4.13;70.96;100651.47;4965563;28;19948;-81
2023/01/26 00:11:03;;;;;;;;;;;;;;;4.18;70.90;100643.75;4966080;28;19926;-82
2023/01/26 00:13:28;;;;;;;;;;;;;;;4.29;70.48;100643.19;4955424;28;19986;-81
2023/01/26 00:15:54;;;;;;;;;;;;;;;4.23;70.59;100637.81;4954991;28;19958;-81
2023/01/26 00:18:19;;;;;;;;;;;;;;;4.00;71.13;100620.63;4961084;28;19932;-81
2023/01/26 00:20:44;;;;;;;;;;;;;;;3.88;72.40;100621.22;4969575;28;19988;-81
2023/01/26 00:23:10;;;;;;;;;;;;;;;3.73;72.89;100617.31;4969877;28;19953;-81
2023/01/26 00:25:36;;;;;;;;;;;;;;;3.76;72.86;100609.56;4968969;28;19981;-81
2023/01/26 00:28:02;;;;;;;;;;;;;;;3.65;73.05;100604.94;4969616;28;19918;-83
2023/01/26 00:30:27;;;;;;;;;;;;;;;3.49;73.58;100598.38;4968827;28;19918;-81
2023/01/26 00:32:52;;;;;;;;;;;;;;;3.46;73.96;100603.50;4969529;28;20348;-81
2023/01/26 00:35:18;;;;;;;;;;;;;;;3.61;73.78;100603.06;4968875;28;19926;-82
2023/01/26 00:37:43;;;;;;;;;;;;;;;3.68;73.55;100610.22;4969050;28;20012;-81
2023/01/26 00:40:09;;;;;;;;;;;;;;;3.74;73.20;100606.06;4968299;28;20343;-83
2023/01/26 00:42:34;;;;;;;;;;;;;;;3.87;72.78;100604.66;4968353;28;19926;-81
2023/01/26 00:45:00;;;;;;;;;;;;;;;3.98;71.93;100593.63;4955546;28;20480;-82
2023/01/26 00:47:25;;;;;;;;;;;;;;;4.12;71.10;100594.84;4959988;28;20443;-82
2023/01/26 00:49:50;;;;;;;;;;;;;;;4.07;70.64;100594.72;4968296;28;19965;-82
2023/01/26 00:52:16;;;;;;;;;;;;;;;3.98;71.25;100604.94;4968671;28;19922;-82
2023/01/26 00:54:41;;;;;;;;;;;;;;;4.03;71.73;100602.44;4968114;28;19977;-82
2023/01/26 00:57:07;;;;;;;;;;;;;;;4.01;71.03;100573.69;4968782;28;19985;-83
2023/01/26 00:59:32;;;;;;;;;;;;;;;4.08;71.27;100596.50;4969041;28;19921;-82
2023/01/26 01:01:58;;;;;;;;;;;;;;;4.11;71.12;100578.31;4968772;28;19923;-81
2023/01/26 01:04:23;;;;;;;;;;;;;;;4.07;71.34;100586.88;4968182;28;20455;-81
2023/01/26 01:06:49;;;;;;;;;;;;;;;4.21;71.06;100578.53;4968744;28;20030;-81
2023/01/26 01:09:14;;;;;;;;;;;;;;;4.07;71.22;100584.28;4967269;28;19929;-81
2023/01/26 01:11:39;;;;;;;;;;;;;;;4.15;70.85;100581.00;4954024;28;20024;-83
2023/01/26 01:14:05;;;;;;;;;;;;;;;4.18;70.91;100575.84;4948992;29;19926;-82
2023/01/26 01:16:30;;;;;;;;;;;;;;;4.20;71.06;100572.44;4966480;28;19922;-82
2023/01/26 01:18:55;;;;;;;;;;;;;;;4.28;70.84;100577.84;4968346;28;19929;-82
2023/01/26 01:21:22;;;;;;;;;;;;;;;4.13;70.91;100566.16;4968352;28;20414;-82
2023/01/26 01:23:47;;;;;;;;;;;;;;;4.22;71.26;100575.09;4968468;28;19929;-81
2023/01/26 01:26:13;;;;;;;;;;;;;;;4.07;71.14;100571.22;4968191;28;19922;-81
2023/01/26 01:28:39;;;;;;;;;;;;;;;4.17;70.90;100566.22;4967870;28;19965;-81
2023/01/26 01:31:05;;;;;;;;;;;;;;;4.03;71.18;100560.66;4967867;28;19953;-81
2023/01/26 01:33:30;;;;;;;;;;;;;;;4.02;71.42;100553.69;4968661;28;19914;-81
2023/01/26 01:35:59;;;;;;;;;;;;;;;4.14;71.15;100554.00;4967829;28;20074;-82
2023/01/26 01:38:25;;;;;;;;;;;;;;;4.15;71.19;100562.72;4968231;28;19997;-82
2023/01/26 01:40:51;;;;;;;;;;;;;;;3.90;71.17;100556.88;4968208;28;20285;-80
2023/01/26 01:43:16;;;;;;;;;;;;;;;3.85;71.57;100561.09;4967852;28;19922;-80
2023/01/26 01:45:43;;;;;;;;;;;;;;;3.73;72.18;100552.06;4967545;28;20389;-80
2023/01/26 01:48:13;;;;;;;;;;;;;;;3.78;72.25;100549.59;4968288;28;19918;-80
2023/01/26 01:50:38;;;;;;;;;;;;;;;3.80;72.02;100545.31;4968083;28;19932;-80
2023/01/26 01:53:06;;;;;;;;;;;;;;;3.78;71.72;100546.09;4967835;28;20012;-81
2023/01/26 01:55:32;;;;;;;;;;;;;;;3.86;71.58;100544.56;4967773;28;20443;-81
2023/01/26 01:58:00;;;;;;;;;;;;;;;3.98;70.82;100531.81;4967763;28;20029;-81
2023/01/26 02:00:25;;;;;;;;;;;;;;;4.00;70.12;100531.88;4968241;28;19918;-81
2023/01/26 02:06:12;;;;;;;;;;;;;;;3.71;70.85;100525.06;4949303;29;19966;-81
2023/01/26 02:08:39;;;;;;;;;;;;;;;3.91;70.88;100519.50;4949990;29;20527;-82
2023/01/26 02:11:09;;;;;;;;;;;;;;;3.83;70.73;100524.50;4949410;29;19928;-81
2023/01/26 02:13:35;;;;;;;;;;;;;;;3.78;71.16;100520.88;4950022;29;19926;-81
2023/01/26 02:16:00;;;;;;;;;;;;;;;3.72;71.77;100533.78;4949514;29;19923;-81
2023/01/26 02:18:26;;;;;;;;;;;;;;;3.50;72.67;100520.16;4949332;29;20492;-82
2023/01/26 02:20:54;;;;;;;;;;;;;;;3.49;73.61;100520.13;4949371;29;19926;-82
2023/01/26 02:23:43;;;;;;;;;;;;;;;3.54;73.68;100510.72;4949777;29;19922;-82
2023/01/26 02:26:11;;;;;;;;;;;;;;;3.71;73.27;100521.59;4911341;29;19923;-81
2023/01/26 02:28:37;;;;;;;;;;;;;;;3.74;73.48;100514.72;4911211;29;19923;-81
2023/01/26 02:31:03;;;;;;;;;;;;;;;3.63;74.08;100521.38;4910870;29;20868;-81
2023/01/26 02:33:30;;;;;;;;;;;;;;;3.56;74.96;100512.50;4911062;29;20412;-81
2023/01/26 02:35:56;;;;;;;;;;;;;;;3.69;74.50;100518.03;4910577;29;19926;-82
2023/01/26 02:38:25;;;;;;;;;;;;;;;3.69;74.42;100508.50;4911113;29;19994;-83
2023/01/26 02:40:50;;;;;;;;;;;;;;;3.68;74.74;100498.91;4911444;29;20015;-82
2023/01/26 02:43:15;;;;;;;;;;;;;;;3.78;74.97;100499.13;4910746;29;20022;-81
2023/01/26 02:45:42;;;;;;;;;;;;;;;3.85;74.39;100494.09;4910947;29;19923;-82
2023/01/26 02:48:07;;;;;;;;;;;;;;;3.87;74.50;100494.13;4911276;29;19976;-81
2023/01/26 02:50:33;;;;;;;;;;;;;;;3.82;74.92;100488.81;4910404;29;20378;-81
2023/01/26 02:52:58;;;;;;;;;;;;;;;3.92;75.12;100487.28;4910338;29;19970;-81
2023/01/26 02:55:25;;;;;;;;;;;;;;;3.95;74.78;100484.75;4910536;29;19927;-82
2023/01/26 02:57:51;;;;;;;;;;;;;;;3.96;74.83;100483.94;4910617;29;19930;-83
2023/01/26 03:00:22;;;;;;;;;;;;;;;3.94;74.27;100483.88;4910689;29;19958;-82
2023/01/26 03:02:49;;;;;;;;;;;;;;;3.97;74.16;100487.41;4932151;28;19969;-82
2023/01/26 03:05:15;;;;;;;;;;;;;;;3.91;74.44;100482.94;4970592;28;19922;-82
2023/01/26 03:07:40;;;;;;;;;;;;;;;4.09;74.29;100482.47;4970751;28;19929;-86
2023/01/26 03:10:06;;;;;;;;;;;;;;;4.09;73.94;100485.09;4970456;28;20435;-84
2023/01/26 03:12:31;;;;;;;;;;;;;;;4.04;73.89;100484.97;4952361;28;19926;-81
2023/01/26 03:17:41;;;;;;;;;;;;;;;3.94;73.85;100476.06;4970207;28;19930;-86
2023/01/26 03:28:21;;;;;;;;;;;;;;;4.08;73.47;100458.13;4962449;28;19972;-81
2023/01/26 03:30:50;;;;;;;;;;;;;;;4.06;73.33;100466.75;4969720;28;19926;-83
2023/01/26 03:33:16;;;;;;;;;;;;;;;4.01;73.13;100461.41;4969618;28;19966;-81
2023/01/26 03:35:41;;;;;;;;;;;;;;;3.98;72.77;100456.13;4970293;28;20011;-81
2023/01/26 03:38:09;;;;;;;;;;;;;;;3.87;73.28;100447.16;4969373;28;20211;-81
2023/01/26 03:56:58;;;;;;;;;;;;;;;4.08;72.20;100420.69;4969736;28;20031;-82
2023/01/26 03:59:36;;;;;;;;;;;;;;;3.94;72.59;100422.97;4970516;28;19961;-81
2023/01/26 04:10:14;;;;;;;;;;;;;;;3.82;73.01;100399.19;4969241;28;20017;-81
2023/01/26 04:12:40;;;;;;;;;;;;;;;3.83;72.87;100401.84;4952458;28;20407;-80
2023/01/26 04:23:18;;;;;;;;;;;;;;;3.79;72.78;100392.16;4968948;28;19976;-84
2023/01/26 04:25:43;;;;;;;;;;;;;;;3.85;72.62;100394.91;4968513;28;19926;-82
2023/01/26 04:28:08;;;;;;;;;;;;;;;3.87;72.67;100398.44;4968128;28;19933;-82
2023/01/26 04:30:34;;;;;;;;;;;;;;;3.88;72.01;100392.38;4968727;28;19988;-84
2023/01/26 04:32:59;;;;;;;;;;;;;;;3.95;71.94;100388.16;4969114;28;20013;-84
2023/01/26 04:35:24;;;;;;;;;;;;;;;3.98;72.25;100389.97;4965182;28;19926;-84
2023/01/26 04:37:50;;;;;;;;;;;;;;;3.96;71.81;100382.13;4969257;28;19926;-88
2023/01/26 04:43:26;;;;;;;;;;;;;;;4.04;71.35;100380.53;4965617;28;20655;-83
2023/01/26 04:46:07;;;;;;;;;;;;;;;4.09;71.07;100384.16;4951359;28;20308;-83
2023/01/26 04:48:33;;;;;;;;;;;;;;;4.04;71.21;100377.94;4962305;28;20401;-84
2023/01/26 04:50:59;;;;;;;;;;;;;;;4.08;71.38;100384.13;4949326;28;19955;-83
2023/01/26 04:53:25;;;;;;;;;;;;;;;4.14;70.93;100384.25;4961599;28;20392;-83
2023/01/26 04:55:51;;;;;;;;;;;;;;;4.12;71.21;100381.63;4949493;29;19922;-82
2023/01/26 04:58:16;;;;;;;;;;;;;;;4.05;71.98;100389.28;4957544;28;19923;-83
2023/01/26 05:00:42;;;;;;;;;;;;;;;4.06;71.76;100378.88;4966872;28;19940;-83
2023/01/26 05:03:10;;;;;;;;;;;;;;;3.99;71.82;100382.19;4961817;28;19929;-83
2023/01/26 05:05:36;;;;;;;;;;;;;;;4.14;71.02;100386.88;4948795;29;20385;-83
2023/01/26 05:08:02;;;;;;;;;;;;;;;4.01;71.87;100377.00;4959735;28;19922;-84
2023/01/26 05:10:27;;;;;;;;;;;;;;;3.96;72.21;100379.50;4967981;28;19937;-83
2023/01/26 05:12:55;;;;;;;;;;;;;;;4.08;71.62;100381.50;4962448;28;19922;-83
2023/01/26 05:15:24;;;;;;;;;;;;;;;3.94;71.84;100379.47;4958141;28;19972;-84
2023/01/26 05:18:44;;;;;;;;;;;;;;;;;;;;;
2023/01/26 05:21:10;;;;;;;;;;;;;;;3.94;72.02;100373.38;4946397;28;20309;-83
2023/01/26 05:23:35;;;;;;;;;;;;;;;4.10;71.65;100371.97;4946867;29;19924;-83
2023/01/26 05:26:09;;;;;;;;;;;;;;;3.99;71.56;100370.88;4930116;29;19958;-84
2023/01/26 05:28:34;;;;;;;;;;;;;;;3.97;71.47;100363.00;4945838;29;20450;-83
2023/01/26 05:30:59;;;;;;;;;;;;;;;4.01;71.17;100364.81;4928438;29;20120;-84
2023/01/26 05:33:25;;;;;;;;;;;;;;;3.91;71.07;100355.91;4944686;29;19930;-83
2023/01/26 05:35:53;;;;;;;;;;;;;;;3.83;71.27;100361.78;4945823;28;19962;-85
2023/01/26 05:38:19;;;;;;;;;;;;;;;3.83;71.47;100351.34;4944535;29;20016;-84
2023/01/26 05:40:44;;;;;;;;;;;;;;;3.47;72.46;100349.66;4935769;28;20021;-83
2023/01/26 05:43:11;;;;;;;;;;;;;;;3.47;72.72;100353.13;4948029;28;20021;-83
2023/01/26 05:45:36;;;;;;;;;;;;;;;3.49;72.94;100356.66;4961541;28;19925;-84
2023/01/26 05:48:02;;;;;;;;;;;;;;;3.39;73.41;100352.94;4953182;28;20388;-83
2023/01/26 05:50:27;;;;;;;;;;;;;;;3.31;73.80;100356.22;4938483;28;20049;-83
2023/01/26 05:52:53;;;;;;;;;;;;;;;3.13;73.80;100352.28;4963346;28;19930;-81
2023/01/26 05:55:18;;;;;;;;;;;;;;;3.21;74.07;100350.78;4970071;28;19977;-83
2023/01/26 05:57:43;;;;;;;;;;;;;;;3.44;73.21;100347.84;4944950;28;20057;-82
2023/01/26 06:00:09;;;;;;;;;;;;;;;3.40;72.79;100344.28;4953515;28;19926;-83
2023/01/26 06:02:35;;;;;;;;;;;;;;;3.20;74.07;100346.38;4958323;28;20293;-82
2023/01/26 06:05:00;;;;;;;;;;;;;;;3.21;74.31;100340.34;4976636;28;19928;-80
2023/01/26 06:07:26;;;;;;;;;;;;;;;3.04;75.11;100345.13;4962642;28;19922;-83
2023/01/26 06:09:51;;;;;;;;;;;;;;;3.09;75.37;100336.53;4947835;28;19926;-82
2023/01/26 06:12:19;;;;;;;;;;;;;;;2.97;75.46;100337.97;4964064;28;19929;-81
2023/01/26 06:14:44;;;;;;;;;;;;;;;3.02;75.64;100327.66;4960965;28;20042;-83
2023/01/26 06:17:10;;;;;;;;;;;;;;;3.04;76.14;100332.09;4961430;28;20446;-81
2023/01/26 06:19:36;;;;;;;;;;;;;;;3.10;76.03;100333.09;4956447;28;19922;-83
2023/01/26 06:22:01;;;;;;;;;;;;;;;3.12;75.34;100336.59;4960702;28;19933;-86
2023/01/26 06:24:27;;;;;;;;;;;;;;;3.15;75.45;100339.28;4988605;28;20305;-81
2023/01/26 06:26:52;;;;;;;;;;;;;;;3.18;75.52;100337.66;4969903;28;19977;-81
2023/01/26 06:29:18;;;;;;;;;;;;;;;3.20;74.85;100338.56;4965545;28;20720;-81
2023/01/26 06:31:44;;;;;;;;;;;;;;;3.22;74.76;100338.59;4964571;28;19961;-80
2023/01/26 06:34:09;;;;;;;;;;;;;;;3.32;74.66;100340.59;4956661;28;19926;-82
2023/01/26 06:36:35;;;;;;;;;;;;;;;3.43;74.56;100343.47;4950637;28;20802;-82
2023/01/26 06:39:01;;;;;;;;;;;;;;;3.48;74.24;100340.97;4956736;28;19918;-82
2023/01/26 06:41:26;;;;;;;;;;;;;;;3.57;73.62;100335.97;4949725;28;20047;-81
2023/01/26 06:43:51;;;;;;;;;;;;;;;3.21;72.89;100337.72;4958088;28;19929;-82
2023/01/26 06:46:18;;;;;;;;;;;;;;;3.20;72.79;100329.88;4948599;28;19929;-82
2023/01/26 06:48:43;;;;;;;;;;;;;;;3.10;72.96;100327.88;4961662;28;19965;-83
2023/01/26 06:51:14;;;;;;;;;;;;;;;3.22;73.50;100326.44;4952271;28;19922;-81
2023/01/26 06:53:42;;;;;;;;;;;;;;;3.18;73.45;100319.41;4976665;28;19922;-81
2023/01/26 06:56:07;;;;;;;;;;;;;;;3.04;74.64;100313.84;4970174;28;19918;-81
2023/01/26 06:58:32;;;;;;;;;;;;;;;2.99;73.24;100318.03;4960212;28;19922;-83
2023/01/26 07:00:58;;;;;;;;;;;;;;;2.98;72.21;100316.28;4970458;28;19929;-82
2023/01/26 07:03:24;;;;;;;;;;;;;;;3.02;72.62;100312.03;4962673;28;19977;-83
2023/01/26 07:05:49;;;;;;;;;;;;;;;3.12;72.88;100318.34;4951149;29;20393;-81
2023/01/26 07:08:15;;;;;;;;;;;;;;;3.05;72.71;100310.38;4951922;29;19940;-81
2023/01/26 07:10:40;;;;;;;;;;;;;;;3.31;72.62;100304.94;4951255;29;20412;-81
2023/01/26 07:13:05;;;;;;;;;;;;;;;3.27;73.22;100300.47;4966229;28;19919;-82
2023/01/26 07:15:31;;;;;;;;;;;;;;;3.13;73.61;100294.06;4951097;29;20385;-81
2023/01/26 07:17:57;;;;;;;;;;;;;;;2.93;73.87;100297.03;4951276;29;19919;-81
2023/01/26 07:20:22;;;;;;;;;;;;;;;3.20;74.74;100295.97;4951078;29;19922;-81
2023/01/26 07:22:48;;;;;;;;;;;;;;;3.14;73.97;100288.00;4951613;29;19922;-82
2023/01/26 07:25:14;;;;;;;;;;;;;;;3.43;73.98;100290.41;4951171;29;19930;-81
2023/01/26 07:27:39;;;;;;;;;;;;;;;3.39;74.01;100282.50;4951271;29;19922;-80
2023/01/26 07:30:05;;;;;;;;;;;;;;;3.33;74.59;100289.31;4951184;29;19922;-81
2023/01/26 07:32:30;;;;;;;;;;;;;;;3.39;74.50;100281.66;4951139;29;19922;-81
2023/01/26 07:34:56;;;;;;;;;;;;;;;3.31;75.68;100284.06;4950605;29;19968;-81
2023/01/26 07:37:21;;;;;;;;;;;;;;;3.16;75.54;100284.56;4950655;29;19922;-81
2023/01/26 07:39:47;;;;;;;;;;;;;;;2.99;75.94;100278.06;4950581;29;19922;-81
2023/01/26 07:42:13;;;;;;;;;;;;;;;2.56;76.88;100277.81;4950783;29;19922;-81
2023/01/26 07:44:38;;;;;;;;;;;;;;;2.64;78.57;100280.63;4951120;29;19919;-81
2023/01/26 07:47:04;;;;;;;;;;;;;;;2.80;78.40;100287.16;4950837;29;19998;-81
2023/01/26 07:49:30;;;;;;;;;;;;;;;3.10;78.67;100281.81;4950470;29;19918;-81
2023/01/26 07:51:56;;;;;;;;;;;;;;;3.35;79.35;100283.31;4950712;29;19929;-81
2023/01/26 07:54:21;;;;;;;;;;;;;;;3.08;79.55;100277.44;4950464;29;19918;-81
2023/01/26 07:56:49;;;;;;;;;;;;;;;2.92;80.91;100271.84;4951067;29;20308;-80
2023/01/26 07:59:15;;;;;;;;;;;;;;;2.84;81.63;100273.34;4949019;28;20365;-81
2023/01/26 08:01:40;;;;;;;;;;;;;;;2.94;81.30;100279.69;4950761;29;19922;-81
2023/01/26 08:04:06;;;;;;;;;;;;;;;2.74;82.05;100276.56;4965097;28;19969;-80
2023/01/26 08:06:31;;;;;;;;;;;;;;;2.83;81.79;100275.06;4950389;29;19925;-81
2023/01/26 08:08:56;;;;;;;;;;;;;;;2.91;82.22;100277.88;4950103;29;19922;-81
2023/01/26 08:11:24;;;;;;;;;;;;;;;2.91;82.12;100277.00;4965250;28;19929;-82
2023/01/26 08:13:49;;;;;;;;;;;;;;;3.00;81.75;100278.09;4950387;29;19926;-82
2023/01/26 08:16:15;;;;;;;;;;;;;;;2.79;82.51;100282.78;4949855;29;20324;-80
2023/01/26 08:18:41;;;;;;;;;;;;;;;2.65;83.12;100282.41;4950222;29;19962;-81
2023/01/26 08:21:07;;;;;;;;;;;;;;;2.67;83.67;100280.72;4950016;29;19922;-81
2023/01/26 08:23:32;;;;;;;;;;;;;;;2.72;83.95;100275.63;4950090;29;19922;-81
2023/01/26 08:26:01;;;;;;;;;;;;;;;2.62;84.43;100262.38;4949771;29;19930;-83
2023/01/26 08:28:27;;;;;;;;;;;;;;;2.60;84.58;100271.88;4950441;29;19968;-82
2023/01/26 08:30:52;;;;;;;;;;;;;;;2.68;84.55;100265.13;4949969;29;20000;-82
2023/01/26 08:33:18;;;;;;;;;;;;;;;2.65;84.86;100265.06;4949979;29;20387;-81
2023/01/26 08:35:43;;;;;;;;;;;;;;;2.47;85.37;100260.25;4949690;29;20416;-81
2023/01/26 08:38:08;;;;;;;;;;;;;;;2.66;86.70;100252.94;4949701;29;19926;-80
2023/01/26 08:40:34;;;;;;;;;;;;;;;2.76;86.15;100257.50;4950020;29;19970;-82
2023/01/26 08:43:00;;;;;;;;;;;;;;;2.64;86.54;100263.31;4949730;29;20365;-81
2023/01/26 08:45:25;;;;;;;;;;;;;;;2.83;85.66;100251.63;4948664;29;19993;-81
2023/01/26 08:47:50;;;;;;;;;;;;;;;2.67;85.04;100247.75;4949224;29;19926;-81
2023/01/26 08:50:16;;;;;;;;;;;;;;;2.46;86.19;100241.97;4949767;29;19922;-81
2023/01/26 08:52:41;;;;;;;;;;;;;;;2.81;86.13;100242.91;4949273;29;20424;-82
2023/01/26 08:55:07;;;;;;;;;;;;;;;2.69;85.69;100235.63;4949669;29;19922;-82
2023/01/26 08:57:32;;;;;;;;;;;;;;;2.82;86.41;100234.22;4949534;29;20021;-81
2023/01/26 08:59:57;;;;;;;;;;;;;;;2.75;85.47;100232.31;4949543;29;20010;-81
2023/01/26 09:02:23;;;;;;;;;;;;;;;2.78;85.57;100226.28;4949179;29;19933;-81
2023/01/26 09:04:48;;;;;;;;;;;;;;;2.81;86.52;100236.78;4949250;29;20285;-81
2023/01/26 09:07:13;;;;;;;;;;;;;;;2.85;85.71;100228.22;4949357;29;20021;-81
2023/01/26 09:09:39;;;;;;;;;;;;;;;2.74;85.43;100229.69;4948829;29;19923;-80
2023/01/26 09:12:04;;;;;;;;;;;;;;;2.76;86.96;100234.06;4949480;29;20399;-80
2023/01/26 09:14:30;;;;;;;;;;;;;;;2.95;85.70;100230.22;4949102;29;19950;-80
2023/01/26 09:16:55;;;;;;;;;;;;;;;2.84;86.40;100226.44;4949171;29;20375;-80
2023/01/26 09:19:20;;;;;;;;;;;;;;;3.11;85.79;100221.03;4948800;29;20243;-81
2023/01/26 09:21:46;;;;;;;;;;;;;;;3.20;85.18;100213.41;4949204;29;19973;-80
2023/01/26 09:24:11;;;;;;;;;;;;;;;3.00;85.34;100214.69;4948924;29;20401;-81
2023/01/26 09:26:36;;;;;;;;;;;;;;;3.21;85.49;100209.97;4949547;29;20393;-81
2023/01/26 09:29:02;;;;;;;;;;;;;;;3.30;85.22;100205.81;4949005;29;19947;-81
2023/01/26 09:31:28;;;;;;;;;;;;;;;3.43;84.85;100201.72;4949188;29;20005;-81
2023/01/26 09:33:53;;;;;;;;;;;;;;;3.62;84.26;100196.06;4949019;29;19923;-81
2023/01/26 09:36:18;;;;;;;;;;;;;;;3.55;83.83;100189.84;4948959;29;19922;-80
2023/01/26 09:38:44;;;;;;;;;;;;;;;3.31;84.29;100182.38;4948905;29;20333;-81
2023/01/26 09:41:09;;;;;;;;;;;;;;;3.46;83.55;100180.94;4948858;29;19929;-80
2023/01/26 09:44:04;;;;;;;;;;;;;;;3.73;82.92;100171.06;4963372;28;20022;-81
2023/01/26 09:46:35;;;;;;;;;;;;;;;3.93;82.18;100161.03;4907790;29;19946;-83
2023/01/26 09:49:20;;;;;;;;;;;;;;;4.08;80.91;100163.06;4908173;29;19923;-82
2023/01/26 09:51:52;;;;;;;;;;;;;;;3.56;81.21;100152.47;4851760;29;19916;-83
2023/01/26 09:54:35;;;;;;;;;;;;;;;3.53;82.15;100155.00;4852086;29;19936;-82
2023/01/26 09:57:01;;;;;;;;;;;;;;;3.45;82.61;100153.09;4852082;29;19931;-81
2023/01/26 09:59:33;;;;;;;;;;;;;;;3.50;83.18;100141.03;4852044;29;20038;-81
2023/01/26 10:02:28;;;;;;;;;;;;;;;3.64;82.40;100131.75;4852327;29;20343;-83
2023/01/26 10:04:56;;;;;;;;;;;;;;;3.58;82.99;100126.41;4814980;29;19929;-82
2023/01/26 10:07:21;;;;;;;;;;;;;;;3.85;82.06;100130.44;4814845;29;20785;-85
2023/01/26 10:09:47;;;;;;;;;;;;;;;3.75;82.12;100119.81;4813407;29;19936;-83
2023/01/26 10:12:17;;;;;;;;;;;;;;;3.61;82.40;100115.16;4815170;29;19972;-82
2023/01/26 10:14:48;;;;;;;;;;;;;;;3.62;82.54;100112.59;4812542;29;19932;-81
2023/01/26 10:17:16;;;;;;;;;;;;;;;3.87;81.99;100108.72;4811181;29;20093;-83
2023/01/26 10:19:48;;;;;;;;;;;;;;;4.00;81.79;100108.94;4811101;29;19975;-83
2023/01/26 10:22:16;;;;;;;;;;;;;;;4.21;81.38;100111.06;4816559;29;19929;-83
2023/01/26 10:24:44;;;;;;;;;;;;;;;4.27;80.89;100103.34;4833659;29;20404;-81
2023/01/26 10:27:12;;;;;;;;;;;;;;;4.38;80.09;100107.00;4836505;29;20031;-82
2023/01/26 10:29:38;;;;;;;;;;;;;;;4.20;80.00;100104.97;4911042;29;19927;-84
2023/01/26 10:32:03;;;;;;;;;;;;;;;4.17;79.67;100098.78;4916489;29;19933;-82
2023/01/26 10:34:28;;;;;;;;;;;;;;;4.07;80.10;100088.19;4929409;29;20693;-83
2023/01/26 10:37:20;;;;;;;;;;;;;;;4.06;79.96;100080.31;4917282;29;19951;-81
2023/01/26 10:39:59;;;;;;;;;;;;;;;4.20;80.41;100068.41;4922809;29;20016;-82
2023/01/26 10:42:29;;;;;;;;;;;;;;;4.36;79.92;100066.03;4961897;28;19934;-86
2023/01/26 10:44:54;;;;;;;;;;;;;;;4.45;79.56;100060.97;4978911;28;19997;-82
2023/01/26 10:47:24;;;;;;;;;;;;;;;4.48;79.12;100054.06;4970277;28;19950;-82
2023/01/26 10:49:50;;;;;;;;;;;;;;;4.76;78.48;100043.13;4970052;28;20329;-82
2023/01/26 10:52:23;;;;;;;;;;;;;;;4.88;77.88;100043.31;4971315;28;20372;-84
2023/01/26 10:55:07;;;;;;;;;;;;;;;4.86;77.86;100028.44;4971578;28;19918;-82
2023/01/26 10:57:36;;;;;;;;;;;;;;;4.78;78.43;100037.06;4971437;28;19925;-83
2023/01/26 11:00:06;;;;;;;;;;;;;;;4.87;78.34;100031.09;4970622;28;19922;-85
2023/01/26 11:02:33;;;;;;;;;;;;;;;4.83;77.97;100043.25;4953646;28;19945;-83
2023/01/26 11:05:08;;;;;;;;;;;;;;;4.76;77.86;100041.38;4953054;28;19933;-83
2023/01/26 11:07:40;;;;;;;;;;;;;;;4.88;77.61;100031.94;4970686;28;19928;-82
2023/01/26 11:10:31;;;;;;;;;;;;;;;4.67;77.63;100030.81;4970758;28;19922;-81
2023/01/26 11:13:23;;;;;;;;;;;;;;;4.76;77.70;100023.09;4968133;28;20436;-82
2023/01/26 11:15:51;;;;;;;;;;;;;;;4.56;77.65;100014.09;4968473;28;20025;-82
2023/01/26 11:18:16;;;;;;;;;;;;;;;4.54;78.36;100013.19;4969931;28;20429;-81
2023/01/26 11:20:56;;;;;;;;;;;;;;;4.47;78.52;100010.47;4985770;28;20443;-83
2023/01/26 11:23:27;;;;;;;;;;;;;;;4.36;79.11;100016.41;4952500;28;19922;-81
2023/01/26 11:26:01;;;;;;;;;;;;;;;4.32;79.21;100005.03;4970633;28;20004;-82
2023/01/26 11:28:26;;;;;;;;;;;;;;;4.50;79.70;99993.13;4970278;28;20016;-82
2023/01/26 11:31:00;;;;;;;;;;;;;;;4.57;80.37;99974.94;4970716;28;20424;-83
2023/01/26 11:33:33;;;;;;;;;;;;;;;4.70;79.40;99970.75;4969492;28;19921;-82
2023/01/26 11:36:17;;;;;;;;;;;;;;;4.66;79.85;99968.94;4969936;28;19933;-82
2023/01/26 11:38:45;;;;;;;;;;;;;;;4.80;78.72;99962.16;4969992;28;19965;-82
2023/01/26 11:41:22;;;;;;;;;;;;;;;4.87;77.74;99946.56;4970368;28;19922;-82
2023/01/26 11:44:09;;;;;;;;;;;;;;;4.77;77.82;99943.84;4970240;28;19922;-82
2023/01/26 11:46:54;;;;;;;;;;;;;;;4.81;78.39;99943.00;4969723;28;19922;-81
2023/01/26 11:49:22;;;;;;;;;;;;;;;4.75;78.41;99935.06;4929244;29;19919;-81
2023/01/26 11:52:08;;;;;;;;;;;;;;;4.65;78.38;99921.03;4928742;29;19923;-81
2023/01/26 11:54:35;;;;;;;;;;;;;;;4.53;78.83;99927.84;4928941;29;20471;-82
2023/01/26 11:57:03;;;;;;;;;;;;;;;4.60;79.31;99917.50;4928640;29;19926;-80
2023/01/26 11:59:28;;;;;;;;;;;;;;;4.66;78.80;99921.91;4928347;29;19923;-82
2023/01/26 12:01:59;;;;;;;;;;;;;;;4.68;79.00;99912.38;4928613;29;19994;-83
2023/01/26 12:04:27;;;;;;;;;;;;;;;4.67;79.21;99915.81;4928184;29;20401;-81
2023/01/26 12:07:05;;;;;;;;;;;;;;;4.43;79.90;99908.53;4928811;29;19922;-82
2023/01/26 12:10:02;;;;;;;;;;;;;;;4.19;79.61;99909.97;4928755;29;20029;-82
2023/01/26 12:12:36;;;;;;;;;;;;;;;4.16;81.48;99903.81;4920982;29;20332;-82
2023/01/26 12:15:14;;;;;;;;;;;;;;;4.10;81.66;99907.22;4927945;29;19945;-83
2023/01/26 12:17:45;;;;;;;;;;;;;;;4.20;81.74;99905.59;4928368;29;19922;-85
2023/01/26 12:20:26;;;;;;;;;;;;;;;4.09;82.20;99902.84;4928373;29;19946;-83
2023/01/26 12:22:54;;;;;;;;;;;;;;;4.16;81.94;99899.47;4928685;29;19974;-84
2023/01/26 12:25:31;;;;;;;;;;;;;;;4.27;81.68;99894.41;4929048;28;19922;-83
2023/01/26 12:28:02;;;;;;;;;;;;;;;4.19;81.78;99896.91;4969446;28;19922;-83
2023/01/26 12:30:27;;;;;;;;;;;;;;;4.05;82.08;99896.72;4969242;28;20731;-82
2023/01/26 12:32:53;;;;;;;;;;;;;;;4.05;81.90;99895.84;4969016;28;19922;-82
2023/01/26 12:35:35;;;;;;;;;;;;;;;4.19;81.96;99889.06;4969067;28;19970;-82
2023/01/26 12:38:05;;;;;;;;;;;;;;;4.34;81.57;99882.28;4969188;28;19922;-82
2023/01/26 12:40:43;;;;;;;;;;;;;;;4.47;80.95;99879.84;4969392;28;20319;-82
2023/01/26 12:43:35;;;;;;;;;;;;;;;4.22;81.96;99878.66;4969044;28;19918;-80
2023/01/26 12:46:01;;;;;;;;;;;;;;;3.94;83.13;99893.94;4943147;28;19973;-81
2023/01/26 12:48:38;;;;;;;;;;;;;;;3.78;83.09;99891.06;4969052;28;19929;-81
2023/01/26 12:51:14;;;;;;;;;;;;;;;3.84;83.22;99884.19;4968062;28;20025;-86
2023/01/26 12:53:45;;;;;;;;;;;;;;;3.97;83.05;99882.69;4968637;28;19981;-82
2023/01/26 12:56:27;;;;;;;;;;;;;;;3.97;83.54;99885.28;4983701;28;19988;-84
2023/01/26 12:58:55;;;;;;;;;;;;;;;3.86;83.91;99884.22;4968484;28;19973;-82
2023/01/26 13:01:22;;;;;;;;;;;;;;;3.55;84.40;99870.69;4968801;28;20316;-82
2023/01/26 13:03:52;;;;;;;;;;;;;;;3.35;85.32;99873.88;4968314;28;19931;-80
2023/01/26 13:06:19;;;;;;;;;;;;;;;3.37;86.50;99873.91;4968568;28;19924;-83
2023/01/26 13:08:52;;;;;;;;;;;;;;;3.73;85.75;99868.38;4968451;28;19918;-80
2023/01/26 13:11:44;;;;;;;;;;;;;;;3.81;84.77;99865.88;4968790;28;20016;-82
2023/01/26 13:14:28;;;;;;;;;;;;;;;3.69;85.93;99861.38;4952764;28;20422;-83
2023/01/26 13:16:53;;;;;;;;;;;;;;;3.76;85.18;99851.91;4968134;28;19961;-82
2023/01/26 13:19:37;;;;;;;;;;;;;;;3.58;85.88;99853.38;4968237;28;19969;-83
2023/01/26 13:22:03;;;;;;;;;;;;;;;3.32;86.97;99850.34;4968032;28;19918;-82
2023/01/26 13:24:28;;;;;;;;;;;;;;;3.39;86.62;99846.97;4968400;28;20501;-82
2023/01/26 13:26:57;;;;;;;;;;;;;;;3.38;86.70;99845.25;4968213;28;20016;-82
2023/01/26 13:29:27;;;;;;;;;;;;;;;3.53;87.10;99843.72;4968520;28;19922;-84
2023/01/26 13:32:15;;;;;;;;;;;;;;;3.62;86.27;99832.56;4968122;28;19968;-83
2023/01/26 13:34:43;;;;;;;;;;;;;;;3.66;85.87;99826.50;4927257;29;19971;-81
2023/01/26 13:37:13;;;;;;;;;;;;;;;3.75;85.77;99829.25;4927325;29;19926;-81
2023/01/26 13:39:43;;;;;;;;;;;;;;;3.99;84.50;99817.44;4926919;29;19923;-82
2023/01/26 13:42:18;;;;;;;;;;;;;;;3.77;84.92;99822.34;4927521;29;19958;-81
2023/01/26 13:44:48;;;;;;;;;;;;;;;3.68;85.15;99817.88;4927325;29;19938;-81
2023/01/26 13:47:26;;;;;;;;;;;;;;;3.76;84.68;99803.19;4927237;29;19962;-81